OIHH  Hamadan  Airport

Hamadan, Iran

Add Bookmark
Status IATA
Operational HDM
Latitude Longitude
34° 52' 9" N 48° 33' 9" E
34.869202 48.552502
Local (DST + 5) UTC (GMT + 4)
Mar 28, 2015 08:24 Mar 28, 2015 03:54
Sunrise-Sunset Local UTC
Begin Civil Twilight 06:41 02:11
Sunrise 07:07 02:37
Sunset 07:34 15:04
End Civil Twilight 08:00 15:30

Current Weather

METAR Observed VFR
OIHH 280300Z 14002KT CAVOK M01/M02 Q1023 Sat, Mar 28, 2015 @ 03:00 UTC
(54 Minutes ago)
Visual Flight Rules
Wind Visibility Clouds Conditions
140° at 2 knots (4 kph) 10 km or more
  • Clear skies
  • No significant weather
Temperatures Readings Precipitation
Current Temp -1°C (30°F)
Dewpoint -2°C (28°F)
Humidity 93%
Altimeter 30.21"Hg
Sea Level Pressure 1023mb
Field Elevation 5764.44'
None Recorded

Additional weather within a 92.6km radius of OIHH

Map ICAO Location
OIHM 69.5km S (160°)

24 Hour Weather History

Loading
-

24 Hour Weather Graphs

Loading
-

CheckWX.com is intended as a tool to help pilots better visualize weather data. It is not intended as a substitute for an official weather briefing obtained from a Flight Service Station. CheckWX.com does not meet the FAA requirements for an official pre-flight weather briefing. Therefore, it's important that pilots still call and obtain an official FSS pre-flight weather briefing.